Time;durP1;ratioP1;P1;durP2;ratioP2;P2;SDS_P1;SDS_P2;PMS_P1;PMS_P2;Temp;Humidity;BMP_temperature;BMP_pressure;BME280_temperature;BME280_humidity;BME280_pressure;Samples;Min_cycle;Max_cycle;Signal;HPM_P1;HPM_P2
2023/08/23 00:01:28;;;;;;;2.08;1.90;;;15.80;99.90;;;;;;5103067;28;20751;-64
2023/08/23 00:03:53;;;;;;;1.67;1.58;;;15.90;99.90;;;;;;5105100;28;20040;-64
2023/08/23 00:06:19;;;;;;;4.78;2.40;;;15.80;99.90;;;;;;5103442;27;20082;-64
2023/08/23 00:08:44;;;;;;;14.40;2.10;;;15.80;99.90;;;;;;5101787;28;20039;-64
2023/08/23 00:11:10;;;;;;;15.57;2.40;;;15.80;99.90;;;;;;5116868;27;20046;-64
2023/08/23 00:13:35;;;;;;;13.93;2.58;;;15.80;99.90;;;;;;5116972;27;20048;-64
2023/08/23 00:16:01;;;;;;;21.95;3.03;;;15.80;99.90;;;;;;5104473;28;20489;-64
2023/08/23 00:18:27;;;;;;;5.20;1.90;;;15.80;99.90;;;;;;5119217;27;20043;-64
2023/08/23 00:20:52;;;;;;;16.55;3.05;;;15.70;99.90;;;;;;5099499;28;20056;-64
2023/08/23 00:23:18;;;;;;;11.80;2.80;;;15.70;99.90;;;;;;5101948;28;20071;-64
2023/08/23 00:25:44;;;;;;;11.32;2.22;;;15.70;99.90;;;;;;5104131;28;20038;-64
2023/08/23 00:28:09;;;;;;;1.90;1.80;;;15.70;99.90;;;;;;5116922;27;20032;-64
2023/08/23 00:30:35;;;;;;;23.90;2.67;;;15.70;99.90;;;;;;5102516;28;20054;-64
2023/08/23 00:33:01;;;;;;;34.38;2.40;;;15.60;99.90;;;;;;5102642;28;20172;-64
2023/08/23 00:35:27;;;;;;;17.23;1.75;;;15.60;99.90;;;;;;5103592;28;20472;-64
2023/08/23 00:37:52;;;;;;;1.20;1.10;;;15.70;99.90;;;;;;5085908;28;20052;-64
2023/08/23 00:40:19;;;;;;;3.63;1.02;;;15.60;99.90;;;;;;5101887;28;20035;-64
2023/08/23 00:42:44;;;;;;;1.17;1.08;;;15.60;99.90;;;;;;5099365;28;20496;-64
2023/08/23 00:45:10;;;;;;;6.03;0.77;;;15.60;99.90;;;;;;5103394;28;20043;-64
2023/08/23 00:47:35;;;;;;;3.42;1.15;;;15.60;99.90;;;;;;5100613;28;20047;-64
2023/08/23 00:50:01;;;;;;;23.70;1.90;;;15.50;99.90;;;;;;5101990;28;20035;-64
2023/08/23 00:52:27;;;;;;;16.92;2.25;;;15.50;99.90;;;;;;5103260;28;20045;-64
2023/08/23 00:54:54;;;;;;;7.82;2.60;;;15.50;99.90;;;;;;5085002;28;20198;-64
2023/08/23 00:57:21;;;;;;;3.50;1.77;;;15.50;99.90;;;;;;5081678;28;20761;-64
2023/08/23 00:59:47;;;;;;;1.30;1.20;;;15.50;99.90;;;;;;5083427;28;20040;-64
2023/08/23 01:02:13;;;;;;;1.70;1.60;;;15.40;99.90;;;;;;5105256;28;20084;-64
2023/08/23 01:04:38;;;;;;;60.28;4.03;;;15.50;99.90;;;;;;5104560;28;20036;-64
2023/08/23 01:07:16;;;;;;;23.33;3.50;;;15.50;99.90;;;;;;5103272;27;20028;-64
2023/08/23 01:09:55;;;;;;;47.78;3.78;;;15.50;99.90;;;;;;5107897;27;20090;-64
2023/08/23 01:12:30;;;;;;;50.05;4.15;;;15.40;99.90;;;;;;5094052;28;20040;-64
2023/08/23 01:15:14;;;;;;;48.78;3.65;;;15.40;99.90;;;;;;5103248;28;20111;-64
2023/08/23 01:17:42;;;;;;;38.83;2.85;;;15.60;99.90;;;;;;5104086;27;20374;-64
2023/08/23 01:20:12;;;;;;;4.43;2.08;;;15.30;99.90;;;;;;5103940;28;20036;-64
2023/08/23 01:22:41;;;;;;;4.32;2.08;;;15.30;99.90;;;;;;5121955;27;20486;-64
2023/08/23 01:25:07;;;;;;;5.47;2.03;;;15.30;99.90;;;;;;5104624;28;20035;-64
2023/08/23 01:27:34;;;;;;;3.05;1.70;;;15.20;99.90;;;;;;5103118;28;20036;-64
2023/08/23 01:30:00;;;;;;;12.30;2.15;;;15.30;99.90;;;;;;5103558;28;20113;-64
2023/08/23 01:32:40;;;;;;;10.05;2.10;;;15.10;99.90;;;;;;5106641;28;20079;-64
2023/08/23 01:35:23;;;;;;;3.22;2.20;;;15.10;99.90;;;;;;5105542;28;20164;-64
2023/08/23 01:37:54;;;;;;;1.83;1.70;;;15.00;99.90;;;;;;5085419;28;20040;-64
2023/08/23 01:40:20;;;;;;;2.05;1.42;;;15.00;99.90;;;;;;5086140;28;20043;-64
2023/08/23 01:42:47;;;;;;;3.58;1.60;;;15.00;99.90;;;;;;5107394;28;20490;-64
2023/08/23 01:45:13;;;;;;;25.23;2.28;;;15.00;99.90;;;;;;5084155;28;20081;-64
2023/08/23 01:47:38;;;;;;;2.10;1.70;;;14.90;99.90;;;;;;5105148;28;20538;-64
2023/08/23 01:50:04;;;;;;;5.15;1.70;;;14.90;99.90;;;;;;5105488;27;20031;-64
2023/08/23 01:52:30;;;;;;;1.92;1.73;;;14.80;99.90;;;;;;5086654;28;20051;-65
2023/08/23 01:54:56;;;;;;;1.60;1.50;;;14.90;99.90;;;;;;5085498;28;20040;-64
2023/08/23 01:57:21;;;;;;;1.33;1.23;;;14.80;99.90;;;;;;5085165;28;20097;-64
2023/08/23 01:59:47;;;;;;;1.67;1.58;;;14.90;99.90;;;;;;5106075;28;20474;-64
2023/08/23 02:02:13;;;;;;;2.25;2.05;;;14.80;99.90;;;;;;5085804;28;20469;-64
2023/08/23 02:04:38;;;;;;;5.82;2.22;;;14.80;99.90;;;;;;5102406;27;20104;-64
2023/08/23 02:07:04;;;;;;;25.02;2.65;;;14.70;99.90;;;;;;5105761;28;20375;-64
2023/08/23 02:09:31;;;;;;;15.18;2.13;;;14.70;99.90;;;;;;5103540;28;20043;-64
2023/08/23 02:11:57;;;;;;;32.17;3.17;;;14.60;99.90;;;;;;5084742;28;20051;-64
2023/08/23 02:14:22;;;;;;;40.65;3.13;;;14.60;99.90;;;;;;5103865;28;20135;-64
2023/08/23 02:16:48;;;;;;;20.35;2.40;;;14.50;99.90;;;;;;5103619;28;20039;-64
2023/08/23 02:19:13;;;;;;;9.57;2.67;;;14.50;99.90;;;;;;5085585;28;20055;-64
2023/08/23 02:21:39;;;;;;;2.53;2.33;;;14.50;99.90;;;;;;5103515;28;20066;-64
2023/08/23 02:24:05;;;;;;;3.40;2.80;;;14.50;99.90;;;;;;5105197;28;20028;-64
2023/08/23 02:26:30;;;;;;;23.92;4.70;;;14.60;99.90;;;;;;5103268;28;20046;-64
2023/08/23 02:28:56;;;;;;;33.33;4.10;;;14.60;99.90;;;;;;5105744;27;20063;-64
2023/08/23 02:31:22;;;;;;;5.88;3.83;;;14.60;99.90;;;;;;5086369;28;20433;-64
2023/08/23 02:33:47;;;;;;;8.68;3.85;;;14.70;99.90;;;;;;5104369;28;20040;-64
2023/08/23 02:36:13;;;;;;;9.20;3.33;;;14.70;99.90;;;;;;5116463;27;20475;-64
2023/08/23 02:38:39;;;;;;;5.35;3.13;;;14.70;99.90;;;;;;5099456;27;20048;-64
2023/08/23 02:41:05;;;;;;;5.43;3.10;;;14.70;99.90;;;;;;5117836;27;20040;-64
2023/08/23 02:43:30;;;;;;;21.42;3.13;;;14.60;99.90;;;;;;5104398;28;20038;-64
2023/08/23 02:45:56;;;;;;;27.10;2.83;;;14.60;99.90;;;;;;5102557;28;20036;-64
2023/08/23 02:48:22;;;;;;;8.13;2.90;;;14.60;99.90;;;;;;5092420;28;20077;-64
2023/08/23 02:50:47;;;;;;;1.65;1.55;;;14.60;99.90;;;;;;5104413;28;20513;-64
2023/08/23 02:53:13;;;;;;;28.27;3.88;;;14.60;99.90;;;;;;5068157;28;20457;-64
2023/08/23 02:55:38;;;;;;;38.10;4.72;;;14.60;99.90;;;;;;5086133;28;20047;-64
2023/08/23 02:58:04;;;;;;;31.10;5.32;;;14.60;99.90;;;;;;5103328;28;20043;-64
2023/08/23 03:00:30;;;;;;;9.90;5.60;;;14.80;99.90;;;;;;5085358;28;20050;-64
2023/08/23 03:02:56;;;;;;;7.50;4.07;;;14.60;99.90;;;;;;5069041;28;20040;-64
2023/08/23 03:05:22;;;;;;;8.15;3.10;;;14.60;99.90;;;;;;5105540;28;20466;-64
2023/08/23 03:07:47;;;;;;;3.28;2.75;;;14.60;99.90;;;;;;5084879;28;20491;-64
2023/08/23 03:10:13;;;;;;;3.22;2.42;;;14.60;99.90;;;;;;5102839;28;20031;-64
2023/08/23 03:12:39;;;;;;;6.90;3.00;;;14.60;99.90;;;;;;5102722;28;20124;-64
2023/08/23 03:15:05;;;;;;;4.55;3.10;;;14.50;99.90;;;;;;5104999;28;20039;-64
2023/08/23 03:17:30;;;;;;;4.82;3.22;;;14.50;99.90;;;;;;5086354;28;20067;-64
2023/08/23 03:19:57;;;;;;;38.35;5.63;;;14.60;99.90;;;;;;5106174;28;20129;-64
2023/08/23 03:22:23;;;;;;;113.10;8.43;;;14.50;99.90;;;;;;5120165;27;20052;-64
2023/08/23 03:24:49;;;;;;;65.50;6.80;;;14.40;99.90;;;;;;5102158;28;20752;-64
2023/08/23 03:27:15;;;;;;;113.38;8.48;;;14.40;99.90;;;;;;5102015;28;20046;-64
2023/08/23 03:29:47;;;;;;;51.88;6.55;;;14.40;99.90;;;;;;5086250;28;20043;-64
2023/08/23 03:32:14;;;;;;;88.05;7.63;;;14.40;99.90;;;;;;5105138;28;20044;-64
2023/08/23 03:34:40;;;;;;;84.35;7.57;;;14.40;99.90;;;;;;5080010;28;20075;-64
2023/08/23 03:37:06;;;;;;;54.72;6.93;;;14.40;99.90;;;;;;5102927;27;20074;-64
2023/08/23 03:39:31;;;;;;;105.15;7.50;;;14.40;99.90;;;;;;5102447;28;20471;-64
2023/08/23 03:41:57;;;;;;;86.45;7.05;;;14.40;99.90;;;;;;5103319;28;20082;-64
2023/08/23 03:44:22;;;;;;;79.30;8.80;;;14.30;99.90;;;;;;5099185;28;20118;-64
2023/08/23 03:46:48;;;;;;;172.30;9.82;;;14.30;99.90;;;;;;5101900;28;21775;-65
2023/08/23 03:49:14;;;;;;;55.22;7.22;;;14.30;99.90;;;;;;5101863;28;20032;-64
2023/08/23 03:51:39;;;;;;;97.22;9.32;;;14.30;99.90;;;;;;5101970;28;20040;-64
2023/08/23 03:54:05;;;;;;;110.15;8.82;;;14.30;99.90;;;;;;5101476;28;20118;-64
2023/08/23 03:56:31;;;;;;;162.88;11.32;;;14.30;99.90;;;;;;5097332;28;20051;-64
2023/08/23 03:58:58;;;;;;;25.52;6.82;;;14.30;99.90;;;;;;5079489;28;20470;-64
2023/08/23 04:01:23;;;;;;;133.15;11.45;;;14.30;99.90;;;;;;5103087;28;20048;-65
2023/08/23 04:03:49;;;;;;;197.50;12.00;;;14.30;99.90;;;;;;5104068;28;20489;-64
2023/08/23 04:06:15;;;;;;;122.00;10.07;;;14.30;99.90;;;;;;5083635;28;20031;-65
2023/08/23 04:08:40;;;;;;;60.65;9.23;;;14.30;99.90;;;;;;5085860;28;20398;-64
2023/08/23 04:11:06;;;;;;;152.80;12.05;;;14.30;99.90;;;;;;5101687;28;20028;-64
2023/08/23 04:13:31;;;;;;;195.55;12.68;;;14.40;99.90;;;;;;5087459;28;20122;-64
2023/08/23 04:15:57;;;;;;;42.13;8.43;;;14.40;99.90;;;;;;5103011;28;20039;-64
2023/08/23 04:18:22;;;;;;;12.93;7.53;;;14.40;99.90;;;;;;5099013;28;20040;-64
2023/08/23 04:20:58;;;;;;;35.38;8.15;;;14.40;99.90;;;;;;5099199;28;20028;-64
2023/08/23 04:23:23;;;;;;;22.60;6.93;;;14.40;99.90;;;;;;5099104;28;20035;-64
2023/08/23 04:25:49;;;;;;;9.93;6.10;;;14.40;99.90;;;;;;5104884;28;20040;-64
2023/08/23 04:28:15;;;;;;;20.50;8.05;;;14.40;99.90;;;;;;5103279;28;20118;-64
2023/08/23 04:30:42;;;;;;;10.43;7.35;;;14.50;99.90;;;;;;5084176;28;20040;-64
2023/08/23 04:33:08;;;;;;;6.93;5.38;;;14.50;99.90;;;;;;5101558;28;20456;-64
2023/08/23 04:35:34;;;;;;;8.52;6.28;;;14.50;99.90;;;;;;5099486;28;20028;-64
2023/08/23 04:37:59;;;;;;;18.67;6.65;;;14.50;99.90;;;;;;5098568;28;20040;-64
2023/08/23 04:40:25;;;;;;;12.23;6.90;;;14.50;99.90;;;;;;5096619;28;20405;-64
2023/08/23 04:42:50;;;;;;;12.65;6.63;;;14.50;99.90;;;;;;5097588;28;20036;-64
2023/08/23 04:45:16;;;;;;;17.10;7.72;;;14.50;99.90;;;;;;5097200;28;20059;-64
2023/08/23 04:47:42;;;;;;;7.50;6.70;;;14.50;99.90;;;;;;5078967;28;20460;-64
2023/08/23 04:50:08;;;;;;;9.80;6.78;;;14.50;99.90;;;;;;5095543;28;20071;-64
2023/08/23 04:52:34;;;;;;;8.18;6.25;;;14.60;99.90;;;;;;5098261;28;20129;-65
2023/08/23 04:55:00;;;;;;;8.45;7.40;;;14.60;99.90;;;;;;5080618;28;20461;-65
2023/08/23 04:57:25;;;;;;;7.82;7.03;;;14.60;99.90;;;;;;5097369;28;20515;-64
2023/08/23 04:59:51;;;;;;;8.68;6.95;;;14.60;99.90;;;;;;5103663;28;20427;-64
2023/08/23 05:02:17;;;;;;;8.25;7.43;;;14.70;99.90;;;;;;5101214;28;20123;-64
2023/08/23 05:04:43;;;;;;;7.18;6.38;;;14.80;99.90;;;;;;5098274;28;20773;-65
2023/08/23 05:07:08;;;;;;;8.95;6.50;;;14.80;99.90;;;;;;5117205;28;20044;-65
2023/08/23 05:09:34;;;;;;;22.92;7.80;;;14.80;99.90;;;;;;5081186;28;20127;-64
2023/08/23 05:11:59;;;;;;;17.60;7.70;;;14.80;99.90;;;;;;5083448;28;20079;-64
2023/08/23 05:14:25;;;;;;;9.52;7.60;;;15.30;99.90;;;;;;5083631;28;20043;-65
2023/08/23 05:16:51;;;;;;;11.38;7.68;;;14.90;99.90;;;;;;5101868;28;20068;-64
2023/08/23 05:19:16;;;;;;;8.52;7.65;;;15.00;99.90;;;;;;5082098;28;20056;-64
2023/08/23 05:21:42;;;;;;;10.25;7.32;;;14.90;99.90;;;;;;5117068;28;20737;-64
2023/08/23 05:24:07;;;;;;;9.07;7.10;;;15.00;99.90;;;;;;5079929;28;20035;-65
2023/08/23 05:26:33;;;;;;;12.85;7.28;;;15.20;99.90;;;;;;5098991;28;20028;-65
2023/08/23 05:28:58;;;;;;;13.27;7.50;;;15.20;99.90;;;;;;5083969;28;20069;-65
2023/08/23 05:31:24;;;;;;;9.02;8.05;;;15.20;99.90;;;;;;5097752;28;20043;-65
2023/08/23 05:33:49;;;;;;;9.23;7.03;;;15.30;99.90;;;;;;5102366;28;20044;-64
2023/08/23 05:36:15;;;;;;;7.05;6.38;;;15.60;99.90;;;;;;5114904;28;20048;-65
2023/08/23 05:38:41;;;;;;;8.38;6.88;;;15.60;99.90;;;;;;5100592;28;20035;-64
2023/08/23 05:41:06;;;;;;;6.82;6.10;;;15.90;99.90;;;;;;5082428;28;20036;-65
2023/08/23 05:43:32;;;;;;;7.40;6.45;;;15.90;99.90;;;;;;5083807;28;20124;-65
2023/08/23 05:45:59;;;;;;;7.85;7.15;;;15.90;99.90;;;;;;5083851;28;20041;-65
2023/08/23 05:48:25;;;;;;;7.57;6.95;;;15.90;99.90;;;;;;5086401;28;20069;-65
2023/08/23 05:50:50;;;;;;;9.05;5.35;;;15.80;99.90;;;;;;5104585;27;20047;-64
2023/08/23 05:53:19;;;;;;;7.18;6.47;;;16.00;99.90;;;;;;5102025;28;20047;-64
2023/08/23 05:55:47;;;;;;;8.55;7.75;;;16.00;99.90;;;;;;5103240;28;20092;-65
2023/08/23 05:58:13;;;;;;;12.82;8.45;;;16.00;99.90;;;;;;5087814;28;20501;-65
2023/08/23 06:00:38;;;;;;;13.60;9.27;;;15.90;99.90;;;;;;5104284;27;20048;-65
2023/08/23 06:03:04;;;;;;;13.98;9.48;;;15.90;99.90;;;;;;5102572;28;20032;-65
2023/08/23 06:05:29;;;;;;;9.75;8.32;;;15.90;99.90;;;;;;5105746;28;20529;-64
2023/08/23 06:07:55;;;;;;;8.85;6.70;;;16.30;99.90;;;;;;5101558;28;20043;-64
2023/08/23 06:10:21;;;;;;;6.97;6.25;;;17.90;99.90;;;;;;5082791;28;20044;-64
2023/08/23 06:12:47;;;;;;;6.43;5.82;;;19.70;99.90;;;;;;5081528;28;20046;-64
2023/08/23 06:15:12;;;;;;;6.00;5.18;;;21.50;99.90;;;;;;5086082;28;20043;-65
2023/08/23 06:17:38;;;;;;;6.90;5.75;;;23.10;99.90;;;;;;5086674;28;20048;-65
2023/08/23 06:20:04;;;;;;;8.77;5.53;;;23.90;99.90;;;;;;5082617;28;20102;-64
2023/08/23 06:22:30;;;;;;;10.23;5.80;;;24.10;99.90;;;;;;5106361;28;20048;-65
2023/08/23 06:24:56;;;;;;;6.63;6.03;;;24.20;99.90;;;;;;5105038;28;20492;-64
2023/08/23 06:27:21;;;;;;;9.25;5.90;;;24.00;99.90;;;;;;5104041;28;20040;-64
2023/08/23 06:29:47;;;;;;;7.80;6.10;;;24.20;99.90;;;;;;5100217;28;20040;-64
2023/08/23 06:32:12;;;;;;;6.22;5.63;;;24.00;99.90;;;;;;5087624;28;20055;-64
2023/08/23 06:34:39;;;;;;;11.40;7.07;;;23.90;99.90;;;;;;5102628;28;20068;-64
2023/08/23 06:37:05;;;;;;;5.68;5.20;;;24.00;99.90;;;;;;5121682;27;20154;-64
2023/08/23 06:39:30;;;;;;;6.93;6.25;;;23.90;99.90;;;;;;5103991;27;20583;-64
2023/08/23 06:41:56;;;;;;;7.82;5.90;;;24.00;99.90;;;;;;5117894;27;20457;-64
2023/08/23 06:44:22;;;;;;;9.32;5.72;;;23.90;99.90;;;;;;5086384;28;20047;-64
2023/08/23 06:46:47;;;;;;;6.20;5.20;;;23.70;99.90;;;;;;5087613;28;20047;-64
2023/08/23 06:49:13;;;;;;;6.43;5.28;;;23.50;99.90;;;;;;5107764;28;20042;-64
2023/08/23 06:51:39;;;;;;;6.28;5.68;;;23.50;99.90;;;;;;5120570;27;20039;-64
2023/08/23 06:54:04;;;;;;;8.40;5.38;;;23.50;99.90;;;;;;5086604;28;20043;-64
2023/08/23 06:56:30;;;;;;;4.97;4.57;;;23.60;99.90;;;;;;5082307;28;20145;-64
2023/08/23 06:58:55;;;;;;;6.45;5.00;;;23.80;99.90;;;;;;5090907;27;20082;-64
2023/08/23 07:01:21;;;;;;;4.85;4.45;;;23.90;99.90;;;;;;5104321;27;20083;-64
2023/08/23 07:03:47;;;;;;;5.47;4.85;;;24.10;99.90;;;;;;5103319;28;20031;-64
2023/08/23 07:06:13;;;;;;;6.07;4.40;;;24.10;99.90;;;;;;5119940;27;20040;-64
2023/08/23 07:08:43;;;;;;;4.63;4.15;;;24.10;99.90;;;;;;5104269;27;20059;-64
2023/08/23 07:11:09;;;;;;;4.97;4.47;;;24.00;99.90;;;;;;5103084;28;20043;-64
2023/08/23 07:13:36;;;;;;;4.97;4.53;;;23.70;99.90;;;;;;5083456;28;20044;-64
2023/08/23 07:16:02;;;;;;;5.30;4.50;;;23.30;99.90;;;;;;5102413;28;20389;-64
2023/08/23 07:18:29;;;;;;;4.78;3.90;;;23.10;99.90;;;;;;5121262;27;20043;-64
2023/08/23 07:20:55;;;;;;;4.80;4.40;;;22.80;99.90;;;;;;5101897;27;20093;-64
2023/08/23 07:23:21;;;;;;;5.07;4.53;;;22.70;99.90;;;;;;5101906;28;20074;-64
2023/08/23 07:25:46;;;;;;;4.68;4.00;;;22.30;99.90;;;;;;5115942;27;20582;-64
2023/08/23 07:28:12;;;;;;;5.03;4.53;;;22.20;99.90;;;;;;5101452;28;20035;-64
2023/08/23 07:30:38;;;;;;;4.68;4.28;;;22.20;99.90;;;;;;5081357;27;20071;-65
2023/08/23 07:33:04;;;;;;;5.57;4.80;;;22.10;99.90;;;;;;5103114;27;20061;-64
2023/08/23 07:35:30;;;;;;;4.38;4.07;;;22.10;99.90;;;;;;5102969;27;20500;-64
2023/08/23 07:37:56;;;;;;;6.25;4.65;;;22.30;99.90;;;;;;5084903;28;20039;-64
2023/08/23 07:40:22;;;;;;;4.38;3.97;;;22.20;99.90;;;;;;5105492;27;20043;-64
2023/08/23 07:42:47;;;;;;;4.20;3.80;;;22.20;99.90;;;;;;5080076;28;20089;-64
2023/08/23 07:45:13;;;;;;;4.32;3.83;;;22.20;99.90;;;;;;5116938;27;20128;-64
2023/08/23 07:47:39;;;;;;;4.03;3.67;;;22.20;99.90;;;;;;5089530;27;20377;-64
2023/08/23 07:50:05;;;;;;;3.53;3.22;;;22.40;99.90;;;;;;5085578;28;20031;-64
2023/08/23 07:52:31;;;;;;;3.97;3.67;;;22.50;99.90;;;;;;5101177;27;20040;-64
2023/08/23 07:54:57;;;;;;;3.53;3.22;;;22.70;99.90;;;;;;5105636;27;20080;-64
2023/08/23 07:57:23;;;;;;;8.25;4.70;;;22.80;99.90;;;;;;5103855;28;20051;-64
2023/08/23 07:59:48;;;;;;;3.83;3.53;;;23.10;99.90;;;;;;5105429;27;20040;-64
2023/08/23 08:02:14;;;;;;;4.97;3.65;;;23.20;99.90;;;;;;5119847;27;20043;-64
2023/08/23 08:04:40;;;;;;;4.65;3.83;;;23.50;99.90;;;;;;5086806;27;20035;-65
2023/08/23 08:07:07;;;;;;;4.88;3.72;;;23.60;99.90;;;;;;5085229;28;20043;-64
2023/08/23 08:09:32;;;;;;;6.68;3.45;;;23.60;99.90;;;;;;5082562;28;20252;-65
2023/08/23 08:11:58;;;;;;;5.63;3.65;;;23.70;99.90;;;;;;5118852;27;20039;-64
2023/08/23 08:14:23;;;;;;;4.00;3.60;;;23.60;99.90;;;;;;5104869;27;20172;-65
2023/08/23 08:16:49;;;;;;;4.25;3.78;;;23.40;99.90;;;;;;5101791;28;20039;-65
2023/08/23 08:19:15;;;;;;;4.97;4.25;;;23.50;99.90;;;;;;5082904;28;20068;-65
2023/08/23 08:21:40;;;;;;;4.03;3.30;;;23.60;99.90;;;;;;5085253;28;20080;-64
2023/08/23 08:24:06;;;;;;;8.40;3.85;;;23.80;99.90;;;;;;5103065;28;20035;-65
2023/08/23 08:26:32;;;;;;;6.93;4.05;;;24.00;99.90;;;;;;5085998;28;20080;-65
2023/08/23 08:28:58;;;;;;;4.70;3.60;;;24.30;99.90;;;;;;5105723;28;20059;-64
2023/08/23 08:31:23;;;;;;;3.95;3.55;;;24.40;99.90;;;;;;5113708;27;20100;-64
2023/08/23 08:33:49;;;;;;;6.50;3.85;;;24.60;99.90;;;;;;5102191;28;20052;-64
2023/08/23 08:36:15;;;;;;;4.53;3.53;;;24.70;99.90;;;;;;5115439;27;20043;-65
2023/08/23 08:38:41;;;;;;;4.32;3.22;;;25.00;99.90;;;;;;5099341;28;20044;-65
2023/08/23 08:41:08;;;;;;;5.10;4.05;;;25.00;99.90;;;;;;5101168;28;20040;-64
2023/08/23 08:43:35;;;;;;;5.53;3.47;;;25.20;99.90;;;;;;5102987;28;20065;-64
2023/08/23 08:46:01;;;;;;;4.25;3.53;;;25.20;99.90;;;;;;5096517;28;20032;-64
2023/08/23 08:48:26;;;;;;;5.95;3.78;;;25.20;99.90;;;;;;5100922;28;20042;-65
2023/08/23 08:50:55;;;;;;;6.47;3.80;;;25.40;99.90;;;;;;5101733;28;20082;-64
2023/08/23 08:53:22;;;;;;;4.88;3.58;;;25.50;99.90;;;;;;5104071;28;20050;-64
2023/08/23 08:55:48;;;;;;;5.50;3.97;;;25.70;99.90;;;;;;5083339;28;20122;-64
2023/08/23 08:58:19;;;;;;;6.20;3.10;;;25.60;99.90;;;;;;5102790;28;20089;-65
2023/08/23 09:00:49;;;;;;;4.65;3.60;;;25.60;99.90;;;;;;5115995;28;20052;-66
2023/08/23 09:03:19;;;;;;;4.25;3.83;;;25.80;99.90;;;;;;5101272;28;20024;-65
2023/08/23 09:05:48;;;;;;;5.82;3.92;;;25.90;99.90;;;;;;5079055;28;20040;-65
2023/08/23 09:08:14;;;;;;;5.95;3.33;;;26.00;99.90;;;;;;5101985;28;20433;-65
2023/08/23 09:10:40;;;;;;;9.57;3.97;;;25.90;99.90;;;;;;5102746;28;20084;-65
2023/08/23 09:13:06;;;;;;;7.03;3.95;;;26.00;99.90;;;;;;5098997;28;20032;-66
2023/08/23 09:15:32;;;;;;;4.53;3.53;;;25.90;99.90;;;;;;5117724;28;20035;-65
2023/08/23 09:17:59;;;;;;;5.82;3.70;;;26.00;99.90;;;;;;5077842;28;20047;-65
2023/08/23 09:20:25;;;;;;;5.07;4.03;;;26.00;99.90;;;;;;5105367;28;20079;-65
2023/08/23 09:22:55;;;;;;;9.85;5.28;;;26.10;99.90;;;;;;5104385;28;20062;-65
2023/08/23 09:25:23;;;;;;;7.78;3.75;;;26.20;99.90;;;;;;5105123;27;20058;-66
2023/08/23 09:27:49;;;;;;;5.03;3.50;;;26.10;99.90;;;;;;5107809;28;20648;-66
2023/08/23 09:30:15;;;;;;;4.93;3.30;;;26.20;99.90;;;;;;5084877;28;20040;-65
2023/08/23 09:32:41;;;;;;;5.03;3.40;;;26.40;99.90;;;;;;5101978;28;20502;-64
2023/08/23 09:35:11;;;;;;;4.45;3.35;;;26.50;99.90;;;;;;5108550;28;20078;-64
2023/08/23 09:37:48;;;;;;;4.13;3.25;;;26.60;99.90;;;;;;5121600;27;20070;-63
2023/08/23 09:40:28;;;;;;;5.72;3.42;;;26.80;99.90;;;;;;5104592;28;20425;-64
2023/08/23 09:42:55;;;;;;;6.47;3.50;;;26.90;99.90;;;;;;5109079;28;20044;-65
2023/08/23 09:45:22;;;;;;;9.38;2.88;;;26.90;99.90;;;;;;5123069;27;20035;-65
2023/08/23 09:47:58;;;;;;;7.43;3.58;;;27.10;99.90;;;;;;5103916;28;20039;-64
2023/08/23 09:50:25;;;;;;;4.75;3.00;;;27.10;99.90;;;;;;5084329;28;20048;-65
2023/08/23 09:53:09;;;;;;;5.22;3.15;;;27.20;99.90;;;;;;5121669;27;20486;-65
2023/08/23 09:55:35;;;;;;;11.25;3.53;;;27.10;99.90;;;;;;5118205;27;20122;-64
2023/08/23 09:58:01;;;;;;;5.88;3.60;;;27.00;99.90;;;;;;5085550;28;20150;-64
2023/08/23 10:00:28;;;;;;;10.23;4.00;;;26.70;99.90;;;;;;5105386;28;20046;-64
2023/08/23 10:02:56;;;;;;;6.75;3.53;;;26.50;99.90;;;;;;5105020;27;20530;-64
2023/08/23 10:05:22;;;;;;;6.60;4.18;;;26.30;99.90;;;;;;5087760;28;20039;-64
2023/08/23 10:07:48;;;;;;;7.43;2.92;;;26.30;99.90;;;;;;5104377;27;20550;-64
2023/08/23 10:10:14;;;;;;;4.63;3.42;;;26.10;99.90;;;;;;5101583;28;20051;-64
2023/08/23 10:12:44;;;;;;;4.78;3.30;;;26.10;99.90;;;;;;5105086;27;20040;-64
2023/08/23 10:15:12;;;;;;;8.02;3.63;;;26.20;99.90;;;;;;5106771;28;20499;-64
2023/08/23 10:17:39;;;;;;;7.30;3.50;;;26.50;99.90;;;;;;5083202;28;20101;-64
2023/08/23 10:20:07;;;;;;;3.85;2.70;;;26.70;99.90;;;;;;5084382;28;20083;-64
2023/08/23 10:22:33;;;;;;;8.02;2.95;;;26.90;99.90;;;;;;5106045;27;20040;-64
2023/08/23 10:24:59;;;;;;;7.75;4.28;;;27.10;99.90;;;;;;5120887;27;20076;-64
2023/08/23 10:27:25;;;;;;;6.90;3.92;;;27.20;99.90;;;;;;5105989;28;20047;-64
2023/08/23 10:29:51;;;;;;;5.85;3.28;;;27.20;99.90;;;;;;5101718;28;20093;-64
2023/08/23 10:32:17;;;;;;;4.63;3.83;;;27.20;99.90;;;;;;5083677;28;20044;-64
2023/08/23 10:34:43;;;;;;;9.50;4.75;;;27.30;99.90;;;;;;5105007;27;20050;-64
2023/08/23 10:37:19;;;;;;;6.97;3.95;;;27.20;99.90;;;;;;5101826;28;20039;-64
2023/08/23 10:39:50;;;;;;;6.07;3.80;;;27.20;99.90;;;;;;5101701;28;20032;-64
2023/08/23 10:42:17;;;;;;;7.05;3.67;;;27.30;99.90;;;;;;5098930;28;20183;-64
2023/08/23 10:44:58;;;;;;;7.05;3.80;;;27.30;99.90;;;;;;5085793;28;20069;-64
2023/08/23 10:47:24;;;;;;;4.88;3.15;;;27.40;99.90;;;;;;5117677;27;20508;-64
2023/08/23 10:49:51;;;;;;;4.65;3.60;;;27.60;99.90;;;;;;5083371;28;20043;-64
2023/08/23 10:52:17;;;;;;;6.90;4.13;;;27.80;99.90;;;;;;5100933;28;20127;-64
2023/08/23 10:54:42;;;;;;;20.95;4.45;;;27.60;99.90;;;;;;5102013;28;20119;-65
2023/08/23 10:57:09;;;;;;;8.25;4.13;;;27.80;99.90;;;;;;5101900;28;20571;-64
2023/08/23 10:59:35;;;;;;;8.43;3.85;;;27.80;99.90;;;;;;5118124;27;20139;-65
2023/08/23 11:02:01;;;;;;;6.55;3.97;;;28.00;99.90;;;;;;5079338;28;20055;-64
2023/08/23 11:04:26;;;;;;;7.45;4.13;;;28.10;99.90;;;;;;5086631;28;20040;-64
2023/08/23 11:06:52;;;;;;;6.90;4.03;;;28.00;99.90;;;;;;5082639;28;20242;-64
2023/08/23 11:09:18;;;;;;;5.82;3.78;;;27.90;99.90;;;;;;5104125;28;20039;-64
2023/08/23 11:11:44;;;;;;;7.93;4.03;;;28.00;99.90;;;;;;5100833;28;20660;-64
2023/08/23 11:14:10;;;;;;;6.10;3.40;;;28.00;99.90;;;;;;5083025;28;20040;-64
2023/08/23 11:16:38;;;;;;;7.65;4.07;;;28.00;99.90;;;;;;5117725;27;20134;-65
2023/08/23 11:19:05;;;;;;;9.18;3.90;;;28.20;99.90;;;;;;5100701;28;20047;-64
2023/08/23 11:21:32;;;;;;;11.63;4.32;;;28.20;99.90;;;;;;5084662;28;20146;-64
2023/08/23 11:24:01;;;;;;;12.60;4.75;;;28.20;99.90;;;;;;5103571;28;20386;-64
2023/08/23 11:26:26;;;;;;;6.55;3.60;;;28.20;99.90;;;;;;5079184;28;20042;-64
2023/08/23 11:28:52;;;;;;;12.80;4.53;;;28.30;99.90;;;;;;5081475;28;20043;-64
2023/08/23 11:31:17;;;;;;;6.53;4.10;;;28.40;99.90;;;;;;5086052;28;20075;-64
2023/08/23 11:33:43;;;;;;;4.75;2.88;;;28.30;99.90;;;;;;5102525;27;20032;-64
2023/08/23 11:36:09;;;;;;;6.75;2.90;;;28.40;99.90;;;;;;5102429;28;20034;-64
2023/08/23 11:38:35;;;;;;;6.07;3.92;;;28.40;99.90;;;;;;5098166;28;20036;-64
2023/08/23 11:41:01;;;;;;;7.55;4.30;;;28.40;99.90;;;;;;5084171;28;20093;-64
2023/08/23 11:43:27;;;;;;;4.50;2.78;;;28.40;99.50;;;;;;5082187;28;20028;-64
2023/08/23 11:45:53;;;;;;;8.18;4.00;;;28.50;99.80;;;;;;5092053;28;20043;-64
2023/08/23 11:48:20;;;;;;;4.80;4.10;;;28.30;99.80;;;;;;5099840;28;20039;-64
2023/08/23 11:50:46;;;;;;;4.93;2.65;;;28.40;99.90;;;;;;5098684;28;20126;-64
2023/08/23 11:53:12;;;;;;;5.22;2.70;;;28.30;99.90;;;;;;5101330;27;20043;-64
2023/08/23 11:55:40;;;;;;;6.45;3.70;;;28.30;99.90;;;;;;5102563;28;20035;-64
2023/08/23 11:58:06;;;;;;;9.88;3.00;;;28.10;99.90;;;;;;5102427;28;20044;-64
2023/08/23 12:00:33;;;;;;;9.77;2.90;;;28.10;99.90;;;;;;5101093;28;20093;-64
2023/08/23 12:02:59;;;;;;;4.20;2.20;;;28.10;99.90;;;;;;5118119;27;20097;-64
2023/08/23 12:05:24;;;;;;;5.55;2.33;;;28.30;99.90;;;;;;5103395;28;20508;-64
2023/08/23 12:07:50;;;;;;;4.95;2.22;;;28.30;99.90;;;;;;5084457;28;20116;-64
2023/08/23 12:10:16;;;;;;;4.45;1.67;;;28.30;98.40;;;;;;5101856;28;20046;-65
2023/08/23 12:12:42;;;;;;;2.70;0.90;;;28.40;98.60;;;;;;5101227;28;20051;-64
2023/08/23 12:15:08;;;;;;;4.82;1.48;;;28.40;97.50;;;;;;5083278;28;20055;-64
2023/08/23 12:17:34;;;;;;;7.90;1.80;;;28.40;97.90;;;;;;5082916;28;20489;-64
2023/08/23 12:20:00;;;;;;;3.25;1.00;;;28.60;98.30;;;;;;5101743;28;20057;-65
2023/08/23 12:22:26;;;;;;;8.10;1.45;;;28.70;98.60;;;;;;5117135;27;20043;-64
2023/08/23 12:24:52;;;;;;;5.15;1.38;;;28.90;99.40;;;;;;5099355;28;20039;-64
2023/08/23 12:27:17;;;;;;;6.03;0.88;;;28.70;97.00;;;;;;5102108;28;20096;-64
2023/08/23 12:29:43;;;;;;;2.92;0.88;;;28.60;97.10;;;;;;5103914;28;20046;-65
2023/08/23 12:32:08;;;;;;;5.03;1.35;;;28.60;97.20;;;;;;5103070;27;20169;-64
2023/08/23 12:34:35;;;;;;;4.15;1.13;;;28.60;96.50;;;;;;5085622;28;20500;-64
2023/08/23 12:37:01;;;;;;;6.43;1.42;;;28.70;96.50;;;;;;5082605;28;20412;-64
2023/08/23 12:39:27;;;;;;;4.05;1.42;;;28.60;96.20;;;;;;5100758;28;20069;-64